createdAt,value
2019-03-01T00:00:28.469Z,45.20
2019-03-01T00:01:28.459Z,36.20
2019-03-01T00:02:28.498Z,38.70
2019-03-01T00:03:28.502Z,43.40
2019-03-01T00:04:28.430Z,42.20
2019-03-01T00:05:28.410Z,46.70
2019-03-01T00:06:28.396Z,42.20
2019-03-01T00:07:28.437Z,43.10
2019-03-01T00:08:28.374Z,43.30
2019-03-01T00:09:28.388Z,44.80
2019-03-01T00:10:28.364Z,44.40
2019-03-01T00:11:28.352Z,42.40
2019-03-01T00:12:28.342Z,38.30
2019-03-01T00:13:28.352Z,42.10
2019-03-01T00:14:28.307Z,44.30
2019-03-01T00:15:28.309Z,43.20
2019-03-01T00:16:28.287Z,40.00
2019-03-01T00:17:28.296Z,39.10
2019-03-01T00:18:28.285Z,45.70
2019-03-01T00:19:28.283Z,44.00
2019-03-01T00:20:28.260Z,41.40
2019-03-01T00:21:28.287Z,44.60
2019-03-01T00:22:28.239Z,39.90
2019-03-01T00:23:28.228Z,43.60
2019-03-01T00:24:28.237Z,44.00
2019-03-01T00:25:28.183Z,44.10
2019-03-01T00:26:28.184Z,40.60
2019-03-01T00:27:28.163Z,47.10
2019-03-01T00:28:28.168Z,44.10
2019-03-01T00:29:28.187Z,45.90
2019-03-01T00:30:28.143Z,39.10
2019-03-01T00:31:28.469Z,42.80
2019-03-01T00:32:28.125Z,43.00
2019-03-01T00:33:28.103Z,44.90
2019-03-01T00:34:28.098Z,49.60
2019-03-01T00:35:28.117Z,52.80
2019-03-01T00:36:28.085Z,51.70
2019-03-01T00:37:28.062Z,46.00
2019-03-01T00:38:28.057Z,56.60
2019-03-01T00:39:28.033Z,55.20
2019-03-01T00:40:28.048Z,49.50
2019-03-01T00:41:28.022Z,50.20
2019-03-01T00:42:28.020Z,48.50
2019-03-01T00:43:28.001Z,50.30
2019-03-01T00:44:27.981Z,47.30
2019-03-01T00:45:28.009Z,45.90
2019-03-01T00:46:27.956Z,46.90
2019-03-01T00:47:27.948Z,42.80
2019-03-01T00:48:27.937Z,43.90
2019-03-01T00:49:27.937Z,44.20
2019-03-01T00:50:27.933Z,47.30
2019-03-01T00:51:27.941Z,44.40
2019-03-01T00:52:27.891Z,42.80
2019-03-01T00:53:27.894Z,44.90
2019-03-01T00:54:27.875Z,44.70
2019-03-01T00:55:27.870Z,42.40
2019-03-01T00:56:27.863Z,41.60
2019-03-01T00:57:27.851Z,44.40
2019-03-01T00:58:27.822Z,43.70
2019-03-01T00:59:27.814Z,45.00
2019-03-01T01:00:27.803Z,45.70
2019-03-01T01:01:27.824Z,44.10
2019-03-01T01:02:27.823Z,38.80
2019-03-01T01:03:27.805Z,42.90
2019-03-01T01:04:27.767Z,41.10
2019-03-01T01:05:27.747Z,44.30
2019-03-01T01:06:27.789Z,44.20
2019-03-01T01:07:27.751Z,41.20
2019-03-01T01:08:27.724Z,40.80
2019-03-01T01:09:27.717Z,40.40
2019-03-01T01:10:27.694Z,46.50
2019-03-01T01:11:27.700Z,38.10
2019-03-01T01:12:27.702Z,36.20
2019-03-01T01:13:27.683Z,40.60
2019-03-01T01:14:27.666Z,46.40
2019-03-01T01:15:27.652Z,43.00
2019-03-01T01:16:27.663Z,39.40
2019-03-01T01:17:27.624Z,36.80
2019-03-01T01:18:27.611Z,39.50
2019-03-01T01:19:27.598Z,36.40
2019-03-01T01:20:27.590Z,39.80
2019-03-01T01:21:27.617Z,38.70
2019-03-01T01:22:27.573Z,44.70
2019-03-01T01:23:27.555Z,46.70
2019-03-01T01:24:27.552Z,39.90
2019-03-01T01:25:27.538Z,46.80
2019-03-01T01:26:27.523Z,43.60
2019-03-01T01:27:27.540Z,40.60
2019-03-01T01:28:27.504Z,44.80
2019-03-01T01:29:27.509Z,40.80
2019-03-01T01:30:27.483Z,39.50
2019-03-01T01:31:27.474Z,42.30
2019-03-01T01:32:27.487Z,44.20
2019-03-01T01:33:27.456Z,43.60
2019-03-01T01:34:27.437Z,41.50
2019-03-01T01:35:27.432Z,37.70
2019-03-01T01:36:27.434Z,45.80
2019-03-01T01:37:27.404Z,41.60
2019-03-01T01:38:27.420Z,40.20
2019-03-01T01:39:27.393Z,44.00
2019-03-01T01:40:27.378Z,42.20
2019-03-01T01:41:27.363Z,36.90
2019-03-01T01:42:27.360Z,38.70
2019-03-01T01:43:27.360Z,50.00
2019-03-01T01:44:27.322Z,41.10
2019-03-01T01:45:27.323Z,38.10
2019-03-01T01:46:27.306Z,39.50
2019-03-01T01:47:27.316Z,42.00
2019-03-01T01:48:27.291Z,40.10
2019-03-01T01:49:27.279Z,42.20
2019-03-01T01:50:27.288Z,42.60
2019-03-01T01:51:27.249Z,38.90
2019-03-01T01:52:27.265Z,39.60
2019-03-01T01:53:27.252Z,35.20
2019-03-01T01:54:27.220Z,40.00
2019-03-01T01:55:27.201Z,41.20
2019-03-01T01:56:27.189Z,39.90
2019-03-01T01:57:27.220Z,40.50
2019-03-01T01:58:27.177Z,44.60
2019-03-01T01:59:27.178Z,42.60
2019-03-01T02:00:27.159Z,39.40
2019-03-01T02:01:27.148Z,43.30
2019-03-01T02:02:27.145Z,39.50
2019-03-01T02:03:27.115Z,37.60
2019-03-01T02:04:27.108Z,41.40
2019-03-01T02:05:27.112Z,40.90
2019-03-01T02:06:27.099Z,44.80
2019-03-01T02:07:27.109Z,40.80
2019-03-01T02:08:27.076Z,40.50
2019-03-01T02:09:27.054Z,44.70
2019-03-01T02:10:27.044Z,49.70
2019-03-01T02:11:27.034Z,41.00
2019-03-01T02:12:27.062Z,42.20
2019-03-01T02:13:26.997Z,41.40
2019-03-01T02:14:26.992Z,39.40
2019-03-01T02:15:26.979Z,46.50
2019-03-01T02:16:26.982Z,41.20
2019-03-01T02:17:26.979Z,42.90
2019-03-01T02:18:26.974Z,41.80
2019-03-01T02:19:26.948Z,38.80
2019-03-01T02:20:26.935Z,44.90
2019-03-01T02:21:26.915Z,38.60
2019-03-01T02:22:26.923Z,43.40
2019-03-01T02:23:26.897Z,41.30
2019-03-01T02:24:26.884Z,38.80
2019-03-01T02:25:26.883Z,42.00
2019-03-01T02:26:26.873Z,41.70
2019-03-01T02:27:26.893Z,45.10
2019-03-01T02:28:26.850Z,44.70
2019-03-01T02:29:26.837Z,42.20
2019-03-01T02:30:26.826Z,38.10
2019-03-01T02:31:26.825Z,38.40
2019-03-01T02:32:26.838Z,39.90
2019-03-01T02:33:26.804Z,42.10
2019-03-01T02:34:26.790Z,36.60
2019-03-01T02:35:26.775Z,44.60
2019-03-01T02:36:26.751Z,41.70
2019-03-01T02:37:26.761Z,39.70
2019-03-01T02:38:26.776Z,35.90
2019-03-01T02:39:26.730Z,40.70
2019-03-01T02:40:26.745Z,36.60
2019-03-01T02:41:26.713Z,35.00
2019-03-01T02:42:26.674Z,39.40
2019-03-01T02:43:26.674Z,38.60
2019-03-01T02:44:26.676Z,39.90
2019-03-01T02:45:26.700Z,40.30
2019-03-01T02:46:26.644Z,43.60
2019-03-01T02:47:26.630Z,35.90
2019-03-01T02:48:26.640Z,43.10
2019-03-01T02:49:26.640Z,39.70
2019-03-01T02:50:26.630Z,41.10
2019-03-01T02:51:26.595Z,37.70
2019-03-01T02:52:26.585Z,39.90
2019-03-01T02:53:26.626Z,40.10
2019-03-01T02:54:26.557Z,40.20
2019-03-01T02:55:26.563Z,40.50
2019-03-01T02:56:26.533Z,38.40
2019-03-01T02:57:26.529Z,38.10
2019-03-01T02:58:26.515Z,41.10
2019-03-01T02:59:26.494Z,47.50
2019-03-01T03:00:26.526Z,39.90
2019-03-01T03:01:26.490Z,41.20
2019-03-01T03:02:26.475Z,43.00
2019-03-01T03:03:26.473Z,38.60
2019-03-01T03:04:26.462Z,38.30
2019-03-01T03:05:26.446Z,41.80
2019-03-01T03:06:26.442Z,35.40
2019-03-01T03:07:26.424Z,37.20
2019-03-01T03:08:26.410Z,42.90
2019-03-01T03:09:26.393Z,45.20
2019-03-01T03:10:26.398Z,37.10
2019-03-01T03:11:26.404Z,39.30
2019-03-01T03:12:26.369Z,37.60
2019-03-01T03:13:26.353Z,44.30
2019-03-01T03:14:26.347Z,37.00
2019-03-01T03:15:26.326Z,35.80
2019-03-01T03:16:26.346Z,39.90
2019-03-01T03:17:26.338Z,45.50
2019-03-01T03:18:26.301Z,42.30
2019-03-01T03:19:26.302Z,41.00
2019-03-01T03:20:26.290Z,43.40
2019-03-01T03:21:26.263Z,41.40
2019-03-01T03:22:26.243Z,41.50
2019-03-01T03:23:26.273Z,41.10
2019-03-01T03:24:26.237Z,39.30
2019-03-01T03:25:26.253Z,34.20
2019-03-01T03:26:26.213Z,37.00
2019-03-01T03:27:26.208Z,43.40
2019-03-01T03:28:26.194Z,38.60
2019-03-01T03:29:26.206Z,37.00
2019-03-01T03:30:26.177Z,40.20
2019-03-01T03:31:26.170Z,38.70
2019-03-01T03:32:26.170Z,33.30
2019-03-01T03:33:26.133Z,35.90
2019-03-01T03:34:26.174Z,39.90
2019-03-01T03:35:26.101Z,35.60
2019-03-01T03:36:26.087Z,39.30
2019-03-01T03:37:26.097Z,37.00
2019-03-01T03:38:26.086Z,36.40
2019-03-01T03:39:26.078Z,35.00
2019-03-01T03:40:26.085Z,38.80
2019-03-01T03:41:26.038Z,39.70
2019-03-01T03:42:26.023Z,46.90
2019-03-01T03:43:26.019Z,37.30
2019-03-01T03:44:26.039Z,36.10
2019-03-01T03:45:26.017Z,37.80
2019-03-01T03:46:26.021Z,43.40
2019-03-01T03:47:25.971Z,45.80
2019-03-01T03:48:25.974Z,44.00
2019-03-01T03:49:25.962Z,40.00
2019-03-01T03:50:25.950Z,40.90
2019-03-01T03:51:25.946Z,40.00
2019-03-01T03:52:25.963Z,40.30
2019-03-01T03:53:25.911Z,41.40
2019-03-01T03:54:25.898Z,39.90
2019-03-01T03:55:25.883Z,49.10
2019-03-01T03:56:25.885Z,43.30
2019-03-01T03:57:25.882Z,42.50
2019-03-01T03:58:25.870Z,48.90
2019-03-01T03:59:25.845Z,47.20
2019-03-01T04:00:25.870Z,40.20
2019-03-01T04:01:25.840Z,47.00
2019-03-01T04:02:25.832Z,53.30
2019-03-01T04:03:25.802Z,44.50
2019-03-01T04:04:25.794Z,43.30
2019-03-01T04:05:25.828Z,48.50
2019-03-01T04:06:25.778Z,47.60
2019-03-01T04:07:25.755Z,46.30
2019-03-01T04:08:25.762Z,48.90
2019-03-01T04:09:25.747Z,43.10
2019-03-01T04:10:25.725Z,45.50
2019-03-01T04:11:25.736Z,47.80
2019-03-01T04:12:25.707Z,47.50
2019-03-01T04:13:25.693Z,41.90
2019-03-01T04:14:25.688Z,42.70
2019-03-01T04:15:25.666Z,49.90
2019-03-01T04:16:25.672Z,48.60
2019-03-01T04:17:25.680Z,42.80
2019-03-01T04:18:25.646Z,49.40
2019-03-01T04:19:25.627Z,48.90
2019-03-01T04:20:25.613Z,47.20
2019-03-01T04:21:25.630Z,48.60
2019-03-01T04:22:25.599Z,47.10
2019-03-01T04:23:25.587Z,46.30
2019-03-01T04:24:25.575Z,45.00
2019-03-01T04:25:25.555Z,50.00
2019-03-01T04:26:25.578Z,46.30
2019-03-01T04:27:25.596Z,41.70
2019-03-01T04:28:25.522Z,44.10
2019-03-01T04:29:25.539Z,44.80
2019-03-01T04:30:25.501Z,43.10
2019-03-01T04:31:25.519Z,39.60
2019-03-01T04:32:25.517Z,41.30
2019-03-01T04:33:25.479Z,46.70
2019-03-01T04:34:25.459Z,43.60
2019-03-01T04:35:25.465Z,40.00
2019-03-01T04:36:25.443Z,42.50
2019-03-01T04:37:25.429Z,47.40
2019-03-01T04:38:25.453Z,45.30
2019-03-01T04:39:25.417Z,44.00
2019-03-01T04:40:25.387Z,42.50
2019-03-01T04:41:25.399Z,43.00
2019-03-01T04:42:25.392Z,43.60
2019-03-01T04:43:25.365Z,40.90
2019-03-01T04:44:25.427Z,41.00
2019-03-01T04:45:25.337Z,44.90
2019-03-01T04:46:25.328Z,47.80
2019-03-01T04:47:25.307Z,42.60
2019-03-01T04:48:25.314Z,53.90
2019-03-01T04:49:25.335Z,40.10
2019-03-01T04:50:25.297Z,39.20
2019-03-01T04:51:25.295Z,43.00
2019-03-01T04:52:25.268Z,42.00
2019-03-01T04:53:25.250Z,45.70
2019-03-01T04:54:25.309Z,48.60
2019-03-01T04:55:25.268Z,43.00
2019-03-01T04:56:25.218Z,45.60
2019-03-01T04:57:25.195Z,40.20
2019-03-01T04:58:25.192Z,42.90
2019-03-01T04:59:25.209Z,39.40
2019-03-01T05:00:25.170Z,40.00
2019-03-01T05:01:25.173Z,40.40
2019-03-01T05:02:25.156Z,35.00
2019-03-01T05:03:25.153Z,41.20
2019-03-01T05:04:25.156Z,39.60
2019-03-01T05:05:25.134Z,43.50
2019-03-01T05:06:25.116Z,45.20
2019-03-01T05:07:25.106Z,39.60
2019-03-01T05:08:25.105Z,41.90
2019-03-01T05:09:25.099Z,42.50
2019-03-01T05:10:25.079Z,43.30
2019-03-01T05:11:25.061Z,39.60
2019-03-01T05:12:25.038Z,37.70
2019-03-01T05:13:25.038Z,44.90
2019-03-01T05:14:25.077Z,49.30
2019-03-01T05:15:25.020Z,42.90
2019-03-01T05:16:25.023Z,43.00
2019-03-01T05:17:24.995Z,45.00
2019-03-01T05:18:24.999Z,47.60
2019-03-01T05:19:24.961Z,42.70
2019-03-01T05:20:24.968Z,41.00
2019-03-01T05:21:24.951Z,46.60
2019-03-01T05:22:24.959Z,47.90
2019-03-01T05:23:24.922Z,45.60
2019-03-01T05:24:24.914Z,48.90
2019-03-01T05:25:24.912Z,51.10
2019-03-01T05:26:24.893Z,48.00
2019-03-01T05:27:24.909Z,48.90
2019-03-01T05:28:24.878Z,47.80
2019-03-01T05:29:24.864Z,50.20
2019-03-01T05:30:24.861Z,50.80
2019-03-01T05:31:24.843Z,53.80
2019-03-01T05:32:24.860Z,59.80
2019-03-01T05:33:24.864Z,54.80
2019-03-01T05:34:24.817Z,56.40
2019-03-01T05:35:24.794Z,53.90
2019-03-01T05:36:24.792Z,52.60
2019-03-01T05:37:24.773Z,66.10
2019-03-01T05:38:24.779Z,59.30
2019-03-01T05:39:24.766Z,54.20
2019-03-01T05:40:24.745Z,61.00
2019-03-01T05:41:24.750Z,67.70
2019-03-01T05:42:24.715Z,66.80
2019-03-01T05:43:24.708Z,63.20
2019-03-01T05:44:24.706Z,65.70
2019-03-01T05:45:24.718Z,65.10
2019-03-01T05:46:24.692Z,61.60
2019-03-01T05:47:24.698Z,69.40
2019-03-01T05:48:24.667Z,67.00
2019-03-01T05:49:24.644Z,68.40
2019-03-01T05:50:24.670Z,60.40
2019-03-01T05:51:24.620Z,65.20
2019-03-01T05:52:24.621Z,63.40
2019-03-01T05:53:24.623Z,63.50
2019-03-01T05:54:24.598Z,64.50
2019-03-01T05:55:24.580Z,55.00
2019-03-01T05:56:24.594Z,67.40
2019-03-01T05:57:24.571Z,65.30
2019-03-01T05:58:24.587Z,64.70
2019-03-01T05:59:24.535Z,66.10
2019-03-01T06:00:24.529Z,62.70
2019-03-01T06:01:24.509Z,60.10
2019-03-01T06:02:24.501Z,70.30
2019-03-01T06:03:24.491Z,56.80
2019-03-01T06:04:24.493Z,71.80
2019-03-01T06:05:25.072Z,66.70
2019-03-01T06:06:24.468Z,62.50
2019-03-01T06:07:24.461Z,63.50
2019-03-01T06:08:24.445Z,63.10
2019-03-01T06:09:24.463Z,62.50
2019-03-01T06:10:24.431Z,68.60
2019-03-01T06:11:24.411Z,73.40
2019-03-01T06:12:24.399Z,63.70
2019-03-01T06:13:24.382Z,60.90
2019-03-01T06:14:24.391Z,62.20
2019-03-01T06:15:24.362Z,69.40
2019-03-01T06:16:24.385Z,62.30
2019-03-01T06:17:24.342Z,67.20
2019-03-01T06:18:24.331Z,62.70
2019-03-01T06:19:24.352Z,58.40
2019-03-01T06:20:24.343Z,59.70
2019-03-01T06:21:24.301Z,59.80
2019-03-01T06:22:24.278Z,64.10
2019-03-01T06:23:24.271Z,55.70
2019-03-01T06:24:24.286Z,71.80
2019-03-01T06:25:24.279Z,60.50
2019-03-01T06:26:24.249Z,65.10
2019-03-01T06:27:24.235Z,66.30
2019-03-01T06:28:24.212Z,68.20
2019-03-01T06:29:24.217Z,67.20
2019-03-01T06:30:24.234Z,69.40
2019-03-01T06:31:24.202Z,67.80
2019-03-01T06:32:24.176Z,60.70
2019-03-01T06:33:24.174Z,59.10
2019-03-01T06:34:24.148Z,62.30
2019-03-01T06:35:24.137Z,63.60
2019-03-01T06:36:24.152Z,63.90
2019-03-01T06:37:24.126Z,63.80
2019-03-01T06:38:24.123Z,63.80
2019-03-01T06:39:24.115Z,61.60
2019-03-01T06:40:24.123Z,65.40
2019-03-01T06:41:24.098Z,65.90
2019-03-01T06:42:24.061Z,63.30
2019-03-01T06:43:24.058Z,63.20
2019-03-01T06:44:24.047Z,65.80
2019-03-01T06:45:24.056Z,73.00
2019-03-01T06:46:24.021Z,68.60
2019-03-01T06:47:24.043Z,65.60
2019-03-01T06:48:24.001Z,66.60
2019-03-01T06:49:23.990Z,66.20
2019-03-01T06:50:23.988Z,61.10
2019-03-01T06:51:28.861Z,65.90
2019-03-01T06:52:24.997Z,73.90
2019-03-01T06:53:23.972Z,67.60
2019-03-01T06:54:23.933Z,76.70
2019-03-01T06:55:23.921Z,62.00
2019-03-01T06:56:23.916Z,63.00
2019-03-01T06:57:23.902Z,67.50
2019-03-01T06:58:23.918Z,61.00
2019-03-01T06:59:23.876Z,62.90
2019-03-01T07:00:23.898Z,61.90
2019-03-01T07:01:23.885Z,65.90
2019-03-01T07:02:23.868Z,69.40
2019-03-01T07:03:23.846Z,65.80
2019-03-01T07:04:23.834Z,70.50
2019-03-01T07:05:23.810Z,67.60
2019-03-01T07:06:23.833Z,67.80
2019-03-01T07:07:23.793Z,69.70
2019-03-01T07:08:23.770Z,64.80
2019-03-01T07:09:23.770Z,73.70
2019-03-01T07:10:23.761Z,61.70
2019-03-01T07:11:23.756Z,64.00
2019-03-01T07:12:23.763Z,65.60
2019-03-01T07:13:23.737Z,65.70
2019-03-01T07:14:23.703Z,62.00
2019-03-01T07:15:23.701Z,78.80
2019-03-01T07:16:23.697Z,66.10
2019-03-01T07:17:23.716Z,75.50
2019-03-01T07:18:23.665Z,67.60
2019-03-01T07:19:23.678Z,72.60
2019-03-01T07:20:23.649Z,79.50
2019-03-01T07:21:23.645Z,68.80
2019-03-01T07:22:23.656Z,69.10
2019-03-01T07:23:23.632Z,72.30
2019-03-01T07:24:23.631Z,74.10
2019-03-01T07:25:23.608Z,74.00
2019-03-01T07:26:23.575Z,74.30
2019-03-01T07:27:23.592Z,72.50
2019-03-01T07:28:23.583Z,74.90
2019-03-01T07:29:23.570Z,78.60
2019-03-01T07:30:23.566Z,73.50
2019-03-01T07:31:23.538Z,85.90
2019-03-01T07:32:23.515Z,84.00
2019-03-01T07:33:23.528Z,81.10
2019-03-01T07:34:23.502Z,80.20
2019-03-01T07:35:23.505Z,75.70
2019-03-01T07:36:23.475Z,73.80
2019-03-01T07:37:23.485Z,78.50
2019-03-01T07:38:23.448Z,72.70
2019-03-01T07:39:23.433Z,75.00
2019-03-01T07:40:23.432Z,74.10
2019-03-01T07:41:23.417Z,79.30
2019-03-01T07:42:23.451Z,81.70
2019-03-01T07:43:23.395Z,79.90
2019-03-01T07:44:23.390Z,76.10
2019-03-01T07:45:23.376Z,77.70
2019-03-01T07:46:23.399Z,76.60
2019-03-01T07:47:23.363Z,74.00
2019-03-01T07:48:23.357Z,83.60
2019-03-01T07:49:23.324Z,82.90
2019-03-01T07:50:23.313Z,71.50
2019-03-01T07:51:23.305Z,78.90
2019-03-01T07:52:23.341Z,76.10
2019-03-01T07:53:23.295Z,74.50
2019-03-01T07:54:23.294Z,76.20
2019-03-01T07:55:24.893Z,69.40
2019-03-01T07:56:23.265Z,72.70
2019-03-01T07:57:23.237Z,75.50
2019-03-01T07:58:25.496Z,74.10
2019-03-01T07:59:24.083Z,65.90
2019-03-01T08:00:23.209Z,72.00
2019-03-01T08:01:25.706Z,70.90
2019-03-01T08:02:24.215Z,86.20
2019-03-01T08:03:23.175Z,77.30
2019-03-01T08:04:23.672Z,73.40
2019-03-01T08:05:23.162Z,73.70
2019-03-01T08:06:23.148Z,74.50
2019-03-01T08:07:23.550Z,75.50
2019-03-01T08:08:23.126Z,75.00
2019-03-01T08:09:23.140Z,74.40
2019-03-01T08:10:23.462Z,77.50
2019-03-01T08:11:23.099Z,75.90
2019-03-01T08:12:23.071Z,85.00
2019-03-01T08:13:23.103Z,86.60
2019-03-01T08:14:24.649Z,82.90
2019-03-01T08:15:23.057Z,84.00
2019-03-01T08:16:25.120Z,75.30
2019-03-01T08:17:23.040Z,83.40
2019-03-01T08:18:23.077Z,89.10
2019-03-01T08:19:23.645Z,81.50
2019-03-01T08:20:22.999Z,77.10
2019-03-01T08:21:22.999Z,85.20
2019-03-01T08:22:24.850Z,82.60
2019-03-01T08:23:22.974Z,85.30
2019-03-01T08:24:22.983Z,85.30
2019-03-01T08:25:24.539Z,77.00
2019-03-01T08:26:22.944Z,83.90
2019-03-01T08:27:25.150Z,78.10
2019-03-01T08:28:23.117Z,82.10
2019-03-01T08:29:22.916Z,80.90
2019-03-01T08:30:22.881Z,81.80
2019-03-01T08:31:22.875Z,80.30
2019-03-01T08:32:22.869Z,83.80
2019-03-01T08:33:22.868Z,82.40
2019-03-01T08:34:22.852Z,93.80
2019-03-01T08:35:25.274Z,83.20
2019-03-01T08:36:23.819Z,81.90
2019-03-01T08:37:22.816Z,87.60
2019-03-01T08:38:25.411Z,84.20
2019-03-01T08:39:23.799Z,86.50
2019-03-01T08:40:22.794Z,92.10
2019-03-01T08:41:25.022Z,88.80
2019-03-01T08:42:22.754Z,93.40
2019-03-01T08:43:22.731Z,82.60
2019-03-01T08:44:24.121Z,85.80
2019-03-01T08:45:22.751Z,86.60
2019-03-01T08:46:22.721Z,92.40
2019-03-01T08:47:24.505Z,96.90
2019-03-01T08:48:22.689Z,89.20
2019-03-01T08:49:22.667Z,88.20
2019-03-01T08:50:22.687Z,87.80
2019-03-01T08:51:26.742Z,79.50
2019-03-01T08:52:22.638Z,87.30
2019-03-01T08:53:22.616Z,94.30
2019-03-01T08:54:22.985Z,87.70
2019-03-01T08:55:22.605Z,87.70
2019-03-01T08:56:26.237Z,80.50
2019-03-01T08:57:25.947Z,86.00
2019-03-01T08:58:22.599Z,90.00
2019-03-01T08:59:22.567Z,95.20
2019-03-01T09:00:23.080Z,83.90
2019-03-01T09:01:22.567Z,90.10
2019-03-01T09:02:22.552Z,91.20
2019-03-01T09:03:23.174Z,80.40
2019-03-01T09:04:22.504Z,88.80
2019-03-01T09:05:22.497Z,90.70
2019-03-01T09:06:22.506Z,90.10
2019-03-01T09:07:22.505Z,91.60
2019-03-01T09:08:22.869Z,92.80
2019-03-01T09:09:22.467Z,82.90
2019-03-01T09:10:22.463Z,75.00
2019-03-01T09:11:22.440Z,89.70
2019-03-01T09:12:22.432Z,85.10
2019-03-01T09:13:22.439Z,82.50
2019-03-01T09:14:22.696Z,86.60
2019-03-01T09:15:22.396Z,87.90
2019-03-01T09:16:22.381Z,85.50
2019-03-01T09:17:22.383Z,84.80
2019-03-01T09:18:22.393Z,88.10
2019-03-01T09:19:25.164Z,84.20
2019-03-01T09:20:22.378Z,81.80
2019-03-01T09:21:22.339Z,76.60
2019-03-01T09:22:24.262Z,85.30
2019-03-01T09:23:27.129Z,80.30
2019-03-01T09:24:22.294Z,81.30
2019-03-01T09:25:22.269Z,85.90
2019-03-01T09:26:22.275Z,77.00
2019-03-01T09:27:22.815Z,83.30
2019-03-01T09:28:22.285Z,67.00
2019-03-01T09:29:22.241Z,73.90
2019-03-01T09:30:22.237Z,74.60
2019-03-01T09:31:22.237Z,77.90
2019-03-01T09:32:22.216Z,82.70
2019-03-01T09:33:22.942Z,80.60
2019-03-01T09:34:22.173Z,79.80
2019-03-01T09:35:22.174Z,78.20
2019-03-01T09:36:22.163Z,76.60
2019-03-01T09:37:22.155Z,69.50
2019-03-01T09:38:22.246Z,75.70
2019-03-01T09:39:22.126Z,71.30
2019-03-01T09:40:22.111Z,79.90
2019-03-01T09:41:22.118Z,77.40
2019-03-01T09:42:22.115Z,76.00
2019-03-01T09:43:24.695Z,73.60
2019-03-01T09:44:23.114Z,73.40
2019-03-01T09:45:22.072Z,77.30
2019-03-01T09:46:24.759Z,71.50
2019-03-01T09:47:23.032Z,76.00
2019-03-01T09:48:22.036Z,76.30
2019-03-01T09:49:24.419Z,73.60
2019-03-01T09:50:22.017Z,71.40
2019-03-01T09:51:22.005Z,71.70
2019-03-01T09:52:23.521Z,70.80
2019-03-01T09:53:21.979Z,72.30
2019-03-01T09:54:21.991Z,74.00
2019-03-01T09:55:21.966Z,72.30
2019-03-01T09:56:24.157Z,70.50
2019-03-01T09:57:21.923Z,71.20
2019-03-01T09:58:21.922Z,73.80
2019-03-01T09:59:21.922Z,73.00
2019-03-01T10:00:21.896Z,69.70
2019-03-01T10:01:21.897Z,76.40
2019-03-01T10:02:21.908Z,68.40
2019-03-01T10:03:21.875Z,71.10
2019-03-01T10:04:21.878Z,74.40
2019-03-01T10:05:21.856Z,73.10
2019-03-01T10:06:21.832Z,71.40
2019-03-01T10:07:21.830Z,69.40
2019-03-01T10:08:21.807Z,72.80
2019-03-01T10:09:21.858Z,70.20
2019-03-01T10:10:21.794Z,74.70
2019-03-01T10:11:21.771Z,67.90
2019-03-01T10:12:21.768Z,71.10
2019-03-01T10:13:21.766Z,68.90
2019-03-01T10:14:21.778Z,73.00
2019-03-01T10:15:21.733Z,72.30
2019-03-01T10:16:21.733Z,66.10
2019-03-01T10:17:21.712Z,66.00
2019-03-01T10:18:21.710Z,71.00
2019-03-01T10:19:21.692Z,68.50
2019-03-01T10:20:21.709Z,70.10
2019-03-01T10:21:21.675Z,65.10
2019-03-01T10:22:21.698Z,70.90
2019-03-01T10:23:21.663Z,65.00
2019-03-01T10:24:21.647Z,62.00
2019-03-01T10:25:21.650Z,66.90
2019-03-01T10:26:21.616Z,76.50
2019-03-01T10:27:21.639Z,62.40
2019-03-01T10:28:21.597Z,64.50
2019-03-01T10:29:21.583Z,61.00
2019-03-01T10:30:21.593Z,61.00
2019-03-01T10:31:21.584Z,61.90
2019-03-01T10:32:21.538Z,72.70
2019-03-01T10:33:21.531Z,70.40
2019-03-01T10:34:21.532Z,73.10
2019-03-01T10:35:21.520Z,76.90
2019-03-01T10:36:21.544Z,75.70
2019-03-01T10:37:21.518Z,73.20
2019-03-01T10:38:21.475Z,65.00
2019-03-01T10:39:21.467Z,66.50
2019-03-01T10:40:21.449Z,61.20
2019-03-01T10:41:21.459Z,60.80
2019-03-01T10:42:21.494Z,69.00
2019-03-01T10:43:23.359Z,67.50
2019-03-01T10:44:21.412Z,66.60
2019-03-01T10:45:21.413Z,64.50
2019-03-01T10:46:21.400Z,62.60
2019-03-01T10:47:21.393Z,71.70
2019-03-01T10:48:21.408Z,66.80
2019-03-01T10:49:21.360Z,72.40
2019-03-01T10:50:21.338Z,66.60
2019-03-01T10:51:21.339Z,70.20
2019-03-01T10:52:21.332Z,70.50
2019-03-01T10:53:21.327Z,65.00
2019-03-01T10:54:21.350Z,75.20
2019-03-01T10:55:21.302Z,75.10
2019-03-01T10:56:21.289Z,63.70
2019-03-01T10:57:21.279Z,62.20
2019-03-01T10:58:21.254Z,66.00
2019-03-01T10:59:21.258Z,74.40
2019-03-01T11:00:21.280Z,75.50
2019-03-01T11:01:21.221Z,68.30
2019-03-01T11:02:21.211Z,78.70
2019-03-01T11:03:21.201Z,65.10
2019-03-01T11:04:21.203Z,81.10
2019-03-01T11:05:21.190Z,72.60
2019-03-01T11:06:21.203Z,67.40
2019-03-01T11:07:21.173Z,68.60
2019-03-01T11:08:21.155Z,65.90
2019-03-01T11:09:21.141Z,73.20
2019-03-01T11:10:21.131Z,66.60
2019-03-01T11:11:21.137Z,74.00
2019-03-01T11:12:21.090Z,67.40
2019-03-01T11:13:21.103Z,67.40
2019-03-01T11:14:21.127Z,67.30
2019-03-01T11:15:21.087Z,82.20
2019-03-01T11:16:21.096Z,66.50
2019-03-01T11:17:21.065Z,68.00
2019-03-01T11:18:21.044Z,76.30
2019-03-01T11:19:21.038Z,71.20
2019-03-01T11:20:21.027Z,69.50
2019-03-01T11:21:20.999Z,71.10
2019-03-01T11:22:21.023Z,77.40
2019-03-01T11:23:20.986Z,76.60
2019-03-01T11:24:20.990Z,76.90
2019-03-01T11:25:20.974Z,78.20
2019-03-01T11:26:20.988Z,84.80
2019-03-01T11:27:20.944Z,70.10
2019-03-01T11:28:20.976Z,84.30
2019-03-01T11:29:20.917Z,89.30
2019-03-01T11:30:20.957Z,96.10
2019-03-01T11:31:20.899Z,94.30
2019-03-01T11:32:20.894Z,87.30
2019-03-01T11:33:20.869Z,92.20
2019-03-01T11:34:20.900Z,105.70
2019-03-01T11:35:20.847Z,112.80
2019-03-01T11:36:20.841Z,102.50
2019-03-01T11:37:20.844Z,104.20
2019-03-01T11:38:20.845Z,99.80
2019-03-01T11:39:20.835Z,101.50
2019-03-01T11:40:20.853Z,89.50
2019-03-01T11:41:20.794Z,94.90
2019-03-01T11:42:20.806Z,93.30
2019-03-01T11:43:20.761Z,103.50
2019-03-01T11:44:20.770Z,88.60
2019-03-01T11:45:20.751Z,85.40
2019-03-01T11:46:20.760Z,95.80
2019-03-01T11:47:20.727Z,99.00
2019-03-01T11:48:20.716Z,84.00
2019-03-01T11:49:20.703Z,88.20
2019-03-01T11:50:20.689Z,82.00
2019-03-01T11:51:20.688Z,80.00
2019-03-01T11:52:20.697Z,85.20
2019-03-01T11:53:20.674Z,85.30
2019-03-01T11:54:20.647Z,77.50
2019-03-01T11:55:20.644Z,85.60
2019-03-01T11:56:20.626Z,76.20
2019-03-01T11:57:20.601Z,80.20
2019-03-01T11:58:20.642Z,67.60
2019-03-01T11:59:20.585Z,74.50
2019-03-01T12:00:20.579Z,76.00
2019-03-01T12:01:20.580Z,83.00
2019-03-01T12:02:20.564Z,80.40
2019-03-01T12:03:20.581Z,70.80
2019-03-01T12:04:20.531Z,73.30
2019-03-01T12:05:20.529Z,81.70
2019-03-01T12:06:20.522Z,78.20
2019-03-01T12:07:20.513Z,74.80
2019-03-01T12:08:20.505Z,78.80
2019-03-01T12:09:20.508Z,68.50
2019-03-01T12:10:20.469Z,72.70
2019-03-01T12:11:20.464Z,73.50
2019-03-01T12:12:20.458Z,75.50
2019-03-01T12:13:20.458Z,77.00
2019-03-01T12:14:22.201Z,73.50
2019-03-01T12:15:20.444Z,67.90
2019-03-01T12:16:20.420Z,74.20
2019-03-01T12:17:20.406Z,75.90
2019-03-01T12:18:20.381Z,66.50
2019-03-01T12:19:21.231Z,72.20
2019-03-01T12:20:20.386Z,71.70
2019-03-01T12:21:20.348Z,66.90
2019-03-01T12:22:20.332Z,76.80
2019-03-01T12:23:20.330Z,72.80
2019-03-01T12:24:20.308Z,76.70
2019-03-01T12:25:20.344Z,72.20
2019-03-01T12:26:20.303Z,85.00
2019-03-01T12:27:20.315Z,68.90
2019-03-01T12:28:20.273Z,74.10
2019-03-01T12:29:20.269Z,68.40
2019-03-01T12:30:20.248Z,66.70
2019-03-01T12:31:20.276Z,61.80
2019-03-01T12:32:20.241Z,61.50
2019-03-01T12:33:20.226Z,54.90
2019-03-01T12:34:20.211Z,55.20
2019-03-01T12:35:20.227Z,54.10
2019-03-01T12:36:20.183Z,51.80
2019-03-01T12:37:20.188Z,54.50
2019-03-01T12:38:20.171Z,57.30
2019-03-01T12:39:20.158Z,54.20
2019-03-01T12:40:20.145Z,48.20
2019-03-01T12:41:20.154Z,45.40
2019-03-01T12:42:20.137Z,50.40
2019-03-01T12:43:20.107Z,56.50
2019-03-01T12:44:20.082Z,60.70
2019-03-01T12:45:20.086Z,51.20
2019-03-01T12:46:20.124Z,51.20
2019-03-01T12:47:20.073Z,61.10
2019-03-01T12:48:20.055Z,57.40
2019-03-01T12:49:20.049Z,53.30
2019-03-01T12:50:20.030Z,50.90
2019-03-01T12:51:20.025Z,58.50
2019-03-01T12:52:20.054Z,57.70